Almira, Washington
Current Conditions -  °F | °C
As of 8:53 AM on Friday 28 Nov 2014 (Local Time) from KEPH Reporting Station
Clear Clear  
Wind Chill: 43°   Ceiling: Unl
Heat Index: 48°   Visibility: 10mi
Dew Point: 43°   Wind: 12mph
Humidity: 83%   Direction: 180°S
Pressure: 29.46"   Gusts: NA
Location:  47.71°N, 118.94°W
Report Text: KEPH 281653Z AUTO 18010KT 10SM CLR 09/06 A2946 RMK AO2 SLP977 T00890061
Loading
Personal Weather Stations






























Interactive Weather Map New forecast layout! Learn more

10-Day Weather Forecast

Advertisements
Track Severe Weather on mobile